Garryowen, Montana
Current Conditions -  °F | °C
As of 3:53 PM on Tuesday 21 Oct 2014 (Local Time) from KSHR Reporting Station
Clear Clear  
Wind Chill: 76°   Ceiling: Unl
Heat Index: 76°   Visibility: 10mi
Dew Point: 34°   Wind: 20mph
Humidity: 22%   Direction: 270°W
Pressure: 29.66"   Gusts: 30mph
Location:  45.52°N, 107.41°W
Report Text: KSHR 212153Z AUTO 27017G26KT 10SM CLR 24/01 A2966 RMK AO2 PK WND 27026/2150 SLP026 T02440011 TSNO
Loading
Personal Weather Stations






























Interactive Weather Map
Tropical Storm Tracking
New forecast layout! Learn more

10-Day Weather Forecast

Advertisements
Track Severe Weather on mobile